sensor_id;sensor_type;location;lat;lon;timestamp;P1;durP1;ratioP1;P2;durP2;ratioP2
67352;SDS011;54238;52.278;21.056;2023-12-20T00:01:38;14.10;;;10.50;;
67352;SDS011;54238;52.278;21.056;2023-12-20T00:04:05;16.60;;;11.70;;
67352;SDS011;54238;52.278;21.056;2023-12-20T00:06:38;16.80;;;12.40;;
67352;SDS011;54238;52.278;21.056;2023-12-20T00:09:13;19.30;;;12.60;;
67352;SDS011;54238;52.278;21.056;2023-12-20T00:11:42;19.40;;;12.30;;
67352;SDS011;54238;52.278;21.056;2023-12-20T00:14:13;18.10;;;11.50;;
67352;SDS011;54238;52.278;21.056;2023-12-20T00:16:45;16.60;;;10.90;;
67352;SDS011;54238;52.278;21.056;2023-12-20T00:19:14;17.20;;;11.50;;
67352;SDS011;54238;52.278;21.056;2023-12-20T00:21:43;17.90;;;10.80;;
67352;SDS011;54238;52.278;21.056;2023-12-20T00:24:13;13.60;;;9.40;;
67352;SDS011;54238;52.278;21.056;2023-12-20T00:26:47;13.60;;;10.30;;
67352;SDS011;54238;52.278;21.056;2023-12-20T00:29:19;14.60;;;11.30;;
67352;SDS011;54238;52.278;21.056;2023-12-20T00:31:46;14.00;;;9.40;;
67352;SDS011;54238;52.278;21.056;2023-12-20T00:34:13;14.50;;;11.10;;
67352;SDS011;54238;52.278;21.056;2023-12-20T00:36:43;13.30;;;9.60;;
67352;SDS011;54238;52.278;21.056;2023-12-20T00:39:15;14.60;;;10.30;;
67352;SDS011;54238;52.278;21.056;2023-12-20T00:41:49;16.10;;;9.90;;
67352;SDS011;54238;52.278;21.056;2023-12-20T00:44:16;17.10;;;11.40;;
67352;SDS011;54238;52.278;21.056;2023-12-20T00:46:45;15.00;;;10.70;;
67352;SDS011;54238;52.278;21.056;2023-12-20T00:49:12;15.90;;;11.50;;
67352;SDS011;54238;52.278;21.056;2023-12-20T00:51:41;15.40;;;9.60;;
67352;SDS011;54238;52.278;21.056;2023-12-20T00:54:11;13.50;;;10.30;;
67352;SDS011;54238;52.278;21.056;2023-12-20T00:56:41;20.90;;;11.20;;
67352;SDS011;54238;52.278;21.056;2023-12-20T00:59:13;15.90;;;9.90;;
67352;SDS011;54238;52.278;21.056;2023-12-20T01:01:48;16.80;;;11.50;;
67352;SDS011;54238;52.278;21.056;2023-12-20T01:04:17;15.00;;;10.80;;
67352;SDS011;54238;52.278;21.056;2023-12-20T01:06:49;16.10;;;11.40;;
67352;SDS011;54238;52.278;21.056;2023-12-20T01:09:21;18.30;;;11.30;;
67352;SDS011;54238;52.278;21.056;2023-12-20T01:11:53;18.60;;;11.00;;
67352;SDS011;54238;52.278;21.056;2023-12-20T01:14:20;18.50;;;10.20;;
67352;SDS011;54238;52.278;21.056;2023-12-20T01:16:49;14.20;;;10.40;;
67352;SDS011;54238;52.278;21.056;2023-12-20T01:19:19;14.80;;;10.30;;
67352;SDS011;54238;52.278;21.056;2023-12-20T01:21:50;13.10;;;9.70;;
67352;SDS011;54238;52.278;21.056;2023-12-20T01:24:20;13.80;;;10.30;;
67352;SDS011;54238;52.278;21.056;2023-12-20T01:26:49;16.40;;;9.30;;
67352;SDS011;54238;52.278;21.056;2023-12-20T01:29:20;12.10;;;9.00;;
67352;SDS011;54238;52.278;21.056;2023-12-20T01:31:48;15.10;;;9.00;;
67352;SDS011;54238;52.278;21.056;2023-12-20T01:34:17;14.80;;;10.30;;
67352;SDS011;54238;52.278;21.056;2023-12-20T01:36:49;12.60;;;8.90;;
67352;SDS011;54238;52.278;21.056;2023-12-20T01:39:19;13.80;;;8.70;;
67352;SDS011;54238;52.278;21.056;2023-12-20T01:41:48;17.80;;;9.90;;
67352;SDS011;54238;52.278;21.056;2023-12-20T01:44:18;13.10;;;9.50;;
67352;SDS011;54238;52.278;21.056;2023-12-20T01:46:45;14.80;;;10.40;;
67352;SDS011;54238;52.278;21.056;2023-12-20T01:49:16;12.80;;;8.70;;
67352;SDS011;54238;52.278;21.056;2023-12-20T01:51:43;13.80;;;9.00;;
67352;SDS011;54238;52.278;21.056;2023-12-20T01:54:13;16.20;;;9.70;;
67352;SDS011;54238;52.278;21.056;2023-12-20T01:56:40;14.20;;;9.50;;
67352;SDS011;54238;52.278;21.056;2023-12-20T01:59:14;12.30;;;8.90;;
67352;SDS011;54238;52.278;21.056;2023-12-20T02:01:44;14.60;;;9.80;;
67352;SDS011;54238;52.278;21.056;2023-12-20T02:04:11;11.80;;;8.30;;
67352;SDS011;54238;52.278;21.056;2023-12-20T02:06:44;10.30;;;7.90;;
67352;SDS011;54238;52.278;21.056;2023-12-20T02:09:15;15.30;;;9.90;;
67352;SDS011;54238;52.278;21.056;2023-12-20T02:11:43;12.30;;;8.80;;
67352;SDS011;54238;52.278;21.056;2023-12-20T02:14:10;15.20;;;9.70;;
67352;SDS011;54238;52.278;21.056;2023-12-20T02:16:37;13.50;;;10.10;;
67352;SDS011;54238;52.278;21.056;2023-12-20T02:19:13;10.90;;;8.20;;
67352;SDS011;54238;52.278;21.056;2023-12-20T02:21:44;9.50;;;6.90;;
67352;SDS011;54238;52.278;21.056;2023-12-20T02:24:15;10.80;;;7.70;;
67352;SDS011;54238;52.278;21.056;2023-12-20T02:26:46;10.50;;;6.20;;
67352;SDS011;54238;52.278;21.056;2023-12-20T02:29:16;11.00;;;8.00;;
67352;SDS011;54238;52.278;21.056;2023-12-20T02:31:43;9.90;;;7.60;;
67352;SDS011;54238;52.278;21.056;2023-12-20T02:34:10;11.20;;;7.10;;
67352;SDS011;54238;52.278;21.056;2023-12-20T02:36:39;9.30;;;6.70;;
67352;SDS011;54238;52.278;21.056;2023-12-20T02:39:06;11.20;;;6.50;;
67352;SDS011;54238;52.278;21.056;2023-12-20T02:41:37;8.80;;;6.30;;
67352;SDS011;54238;52.278;21.056;2023-12-20T02:44:07;10.60;;;7.70;;
67352;SDS011;54238;52.278;21.056;2023-12-20T02:46:37;8.90;;;5.80;;
67352;SDS011;54238;52.278;21.056;2023-12-20T02:49:07;9.60;;;6.20;;
67352;SDS011;54238;52.278;21.056;2023-12-20T02:51:36;10.00;;;7.00;;
67352;SDS011;54238;52.278;21.056;2023-12-20T02:54:10;7.90;;;5.40;;
67352;SDS011;54238;52.278;21.056;2023-12-20T02:56:40;7.60;;;5.80;;
67352;SDS011;54238;52.278;21.056;2023-12-20T02:59:09;9.30;;;6.50;;
67352;SDS011;54238;52.278;21.056;2023-12-20T03:01:43;8.00;;;6.20;;
67352;SDS011;54238;52.278;21.056;2023-12-20T03:04:13;8.00;;;6.20;;
67352;SDS011;54238;52.278;21.056;2023-12-20T03:06:45;8.90;;;6.40;;
67352;SDS011;54238;52.278;21.056;2023-12-20T03:09:18;7.40;;;5.70;;
67352;SDS011;54238;52.278;21.056;2023-12-20T03:11:45;9.20;;;6.40;;
67352;SDS011;54238;52.278;21.056;2023-12-20T03:14:15;7.40;;;7.10;;
67352;SDS011;54238;52.278;21.056;2023-12-20T03:16:49;6.80;;;5.20;;
67352;SDS011;54238;52.278;21.056;2023-12-20T03:19:17;9.00;;;5.40;;
67352;SDS011;54238;52.278;21.056;2023-12-20T03:21:49;7.40;;;5.50;;
67352;SDS011;54238;52.278;21.056;2023-12-20T03:24:20;9.40;;;6.10;;
67352;SDS011;54238;52.278;21.056;2023-12-20T03:26:47;9.80;;;6.10;;
67352;SDS011;54238;52.278;21.056;2023-12-20T03:29:13;9.00;;;6.80;;
67352;SDS011;54238;52.278;21.056;2023-12-20T03:31:43;9.20;;;7.10;;
67352;SDS011;54238;52.278;21.056;2023-12-20T03:34:12;12.30;;;6.50;;
67352;SDS011;54238;52.278;21.056;2023-12-20T03:36:40;8.80;;;6.30;;
67352;SDS011;54238;52.278;21.056;2023-12-20T03:39:07;14.10;;;6.30;;
67352;SDS011;54238;52.278;21.056;2023-12-20T03:41:36;11.80;;;7.40;;
67352;SDS011;54238;52.278;21.056;2023-12-20T03:44:05;10.60;;;6.80;;
67352;SDS011;54238;52.278;21.056;2023-12-20T03:46:38;12.30;;;7.00;;
67352;SDS011;54238;52.278;21.056;2023-12-20T03:49:07;10.10;;;7.20;;
67352;SDS011;54238;52.278;21.056;2023-12-20T03:51:41;9.70;;;7.00;;
67352;SDS011;54238;52.278;21.056;2023-12-20T03:54:10;9.10;;;6.60;;
67352;SDS011;54238;52.278;21.056;2023-12-20T03:56:37;9.20;;;6.60;;
67352;SDS011;54238;52.278;21.056;2023-12-20T03:59:07;9.50;;;6.60;;
67352;SDS011;54238;52.278;21.056;2023-12-20T04:01:34;13.10;;;8.20;;
67352;SDS011;54238;52.278;21.056;2023-12-20T04:04:03;19.10;;;9.10;;
67352;SDS011;54238;52.278;21.056;2023-12-20T04:06:30;11.60;;;7.70;;
67352;SDS011;54238;52.278;21.056;2023-12-20T04:09:02;11.80;;;7.70;;
67352;SDS011;54238;52.278;21.056;2023-12-20T04:11:32;11.90;;;7.80;;
67352;SDS011;54238;52.278;21.056;2023-12-20T04:14:23;12.30;;;7.40;;
67352;SDS011;54238;52.278;21.056;2023-12-20T04:16:53;10.60;;;7.60;;
67352;SDS011;54238;52.278;21.056;2023-12-20T04:19:23;12.80;;;8.10;;
67352;SDS011;54238;52.278;21.056;2023-12-20T04:21:53;12.30;;;7.70;;
67352;SDS011;54238;52.278;21.056;2023-12-20T04:24:22;9.60;;;7.70;;
67352;SDS011;54238;52.278;21.056;2023-12-20T04:26:52;10.80;;;8.20;;
67352;SDS011;54238;52.278;21.056;2023-12-20T04:29:19;9.40;;;7.40;;
67352;SDS011;54238;52.278;21.056;2023-12-20T04:31:50;11.00;;;7.60;;
67352;SDS011;54238;52.278;21.056;2023-12-20T04:34:21;8.40;;;6.60;;
67352;SDS011;54238;52.278;21.056;2023-12-20T04:36:56;10.10;;;8.00;;
67352;SDS011;54238;52.278;21.056;2023-12-20T04:39:25;12.20;;;7.50;;
67352;SDS011;54238;52.278;21.056;2023-12-20T04:41:55;9.10;;;7.30;;
67352;SDS011;54238;52.278;21.056;2023-12-20T04:44:22;10.50;;;7.20;;
67352;SDS011;54238;52.278;21.056;2023-12-20T04:46:53;7.30;;;5.80;;
67352;SDS011;54238;52.278;21.056;2023-12-20T04:49:20;8.50;;;6.60;;
67352;SDS011;54238;52.278;21.056;2023-12-20T04:51:54;6.60;;;6.00;;
67352;SDS011;54238;52.278;21.056;2023-12-20T04:54:22;8.10;;;7.00;;
67352;SDS011;54238;52.278;21.056;2023-12-20T04:56:53;9.90;;;7.10;;
67352;SDS011;54238;52.278;21.056;2023-12-20T04:59:20;13.30;;;9.00;;
67352;SDS011;54238;52.278;21.056;2023-12-20T05:01:50;12.70;;;8.00;;
67352;SDS011;54238;52.278;21.056;2023-12-20T05:04:19;11.00;;;7.30;;
67352;SDS011;54238;52.278;21.056;2023-12-20T05:06:49;8.30;;;6.70;;
67352;SDS011;54238;52.278;21.056;2023-12-20T05:09:21;14.20;;;9.10;;
67352;SDS011;54238;52.278;21.056;2023-12-20T05:11:50;12.20;;;7.40;;
67352;SDS011;54238;52.278;21.056;2023-12-20T05:14:17;11.80;;;7.30;;
67352;SDS011;54238;52.278;21.056;2023-12-20T05:16:46;11.60;;;7.40;;
67352;SDS011;54238;52.278;21.056;2023-12-20T05:19:13;10.80;;;8.50;;
67352;SDS011;54238;52.278;21.056;2023-12-20T05:21:40;8.60;;;7.00;;
67352;SDS011;54238;52.278;21.056;2023-12-20T05:24:12;7.20;;;6.40;;
67352;SDS011;54238;52.278;21.056;2023-12-20T05:26:39;11.40;;;9.00;;
67352;SDS011;54238;52.278;21.056;2023-12-20T05:29:06;10.30;;;7.50;;
67352;SDS011;54238;52.278;21.056;2023-12-20T05:31:33;10.80;;;8.00;;
67352;SDS011;54238;52.278;21.056;2023-12-20T05:34:04;11.70;;;8.70;;
67352;SDS011;54238;52.278;21.056;2023-12-20T05:36:31;14.70;;;8.20;;
67352;SDS011;54238;52.278;21.056;2023-12-20T05:38:58;9.90;;;7.80;;
67352;SDS011;54238;52.278;21.056;2023-12-20T05:41:30;11.90;;;8.60;;
67352;SDS011;54238;52.278;21.056;2023-12-20T05:44:00;10.20;;;8.10;;
67352;SDS011;54238;52.278;21.056;2023-12-20T05:46:31;10.40;;;8.40;;
67352;SDS011;54238;52.278;21.056;2023-12-20T05:49:01;9.10;;;7.60;;
67352;SDS011;54238;52.278;21.056;2023-12-20T05:51:29;9.10;;;7.30;;
67352;SDS011;54238;52.278;21.056;2023-12-20T05:53:58;12.20;;;9.20;;
67352;SDS011;54238;52.278;21.056;2023-12-20T05:56:28;9.00;;;7.80;;
67352;SDS011;54238;52.278;21.056;2023-12-20T05:58:55;11.60;;;9.20;;
67352;SDS011;54238;52.278;21.056;2023-12-20T06:01:22;10.20;;;7.60;;
67352;SDS011;54238;52.278;21.056;2023-12-20T06:03:53;10.10;;;8.40;;
67352;SDS011;54238;52.278;21.056;2023-12-20T06:06:20;12.70;;;10.00;;
67352;SDS011;54238;52.278;21.056;2023-12-20T06:08:49;11.10;;;9.90;;
67352;SDS011;54238;52.278;21.056;2023-12-20T06:11:16;15.50;;;9.40;;
67352;SDS011;54238;52.278;21.056;2023-12-20T06:13:46;10.40;;;7.70;;
67352;SDS011;54238;52.278;21.056;2023-12-20T06:16:15;9.70;;;8.10;;
67352;SDS011;54238;52.278;21.056;2023-12-20T06:18:45;12.40;;;9.60;;
67352;SDS011;54238;52.278;21.056;2023-12-20T06:21:16;11.70;;;9.20;;
67352;SDS011;54238;52.278;21.056;2023-12-20T06:23:43;13.10;;;9.50;;
67352;SDS011;54238;52.278;21.056;2023-12-20T06:26:12;12.10;;;9.20;;
67352;SDS011;54238;52.278;21.056;2023-12-20T06:28:42;11.90;;;9.30;;
67352;SDS011;54238;52.278;21.056;2023-12-20T06:31:11;10.90;;;8.80;;
67352;SDS011;54238;52.278;21.056;2023-12-20T06:33:43;10.00;;;8.10;;
67352;SDS011;54238;52.278;21.056;2023-12-20T06:36:13;10.70;;;9.00;;
67352;SDS011;54238;52.278;21.056;2023-12-20T06:38:40;10.40;;;7.10;;
67352;SDS011;54238;52.278;21.056;2023-12-20T06:41:13;12.30;;;7.40;;
67352;SDS011;54238;52.278;21.056;2023-12-20T06:43:43;11.40;;;7.90;;
67352;SDS011;54238;52.278;21.056;2023-12-20T06:46:16;11.50;;;7.30;;
67352;SDS011;54238;52.278;21.056;2023-12-20T06:48:45;7.00;;;5.80;;
67352;SDS011;54238;52.278;21.056;2023-12-20T06:51:17;13.50;;;9.30;;
67352;SDS011;54238;52.278;21.056;2023-12-20T06:53:54;13.10;;;10.00;;
67352;SDS011;54238;52.278;21.056;2023-12-20T06:56:23;14.50;;;9.80;;
67352;SDS011;54238;52.278;21.056;2023-12-20T06:58:55;8.70;;;7.00;;
67352;SDS011;54238;52.278;21.056;2023-12-20T07:01:26;11.20;;;8.70;;
67352;SDS011;54238;52.278;21.056;2023-12-20T07:03:56;8.60;;;7.00;;
67352;SDS011;54238;52.278;21.056;2023-12-20T07:06:22;9.80;;;8.10;;
67352;SDS011;54238;52.278;21.056;2023-12-20T07:08:54;7.90;;;6.90;;
67352;SDS011;54238;52.278;21.056;2023-12-20T07:11:24;10.80;;;8.00;;
67352;SDS011;54238;52.278;21.056;2023-12-20T07:13:55;11.90;;;8.10;;
67352;SDS011;54238;52.278;21.056;2023-12-20T07:16:25;10.80;;;6.70;;
67352;SDS011;54238;52.278;21.056;2023-12-20T07:18:54;12.60;;;9.20;;
67352;SDS011;54238;52.278;21.056;2023-12-20T07:21:21;6.90;;;6.20;;
67352;SDS011;54238;52.278;21.056;2023-12-20T07:23:50;10.60;;;7.50;;
67352;SDS011;54238;52.278;21.056;2023-12-20T07:26:17;6.90;;;6.10;;
67352;SDS011;54238;52.278;21.056;2023-12-20T07:28:52;10.70;;;8.80;;
67352;SDS011;54238;52.278;21.056;2023-12-20T07:31:21;10.80;;;8.10;;
67352;SDS011;54238;52.278;21.056;2023-12-20T07:33:53;12.60;;;8.80;;
67352;SDS011;54238;52.278;21.056;2023-12-20T07:36:27;7.70;;;6.90;;
67352;SDS011;54238;52.278;21.056;2023-12-20T07:38:54;11.90;;;8.40;;
67352;SDS011;54238;52.278;21.056;2023-12-20T07:41:21;12.00;;;8.90;;
67352;SDS011;54238;52.278;21.056;2023-12-20T07:43:52;8.70;;;7.30;;
67352;SDS011;54238;52.278;21.056;2023-12-20T07:46:30;12.90;;;10.10;;
67352;SDS011;54238;52.278;21.056;2023-12-20T07:48:59;11.50;;;8.90;;
67352;SDS011;54238;52.278;21.056;2023-12-20T07:51:29;13.60;;;9.70;;
67352;SDS011;54238;52.278;21.056;2023-12-20T07:53:56;14.70;;;7.90;;
67352;SDS011;54238;52.278;21.056;2023-12-20T07:56:28;13.40;;;10.20;;
67352;SDS011;54238;52.278;21.056;2023-12-20T07:58:57;11.60;;;8.40;;
67352;SDS011;54238;52.278;21.056;2023-12-20T08:01:26;12.10;;;9.00;;
67352;SDS011;54238;52.278;21.056;2023-12-20T08:03:58;10.20;;;7.50;;
67352;SDS011;54238;52.278;21.056;2023-12-20T08:06:25;15.60;;;10.40;;
67352;SDS011;54238;52.278;21.056;2023-12-20T08:08:55;10.00;;;7.80;;
67352;SDS011;54238;52.278;21.056;2023-12-20T08:11:25;12.20;;;9.40;;
67352;SDS011;54238;52.278;21.056;2023-12-20T08:13:52;12.20;;;8.90;;
67352;SDS011;54238;52.278;21.056;2023-12-20T08:16:23;9.40;;;7.00;;
67352;SDS011;54238;52.278;21.056;2023-12-20T08:18:53;13.70;;;7.50;;
67352;SDS011;54238;52.278;21.056;2023-12-20T08:21:22;9.60;;;8.30;;
67352;SDS011;54238;52.278;21.056;2023-12-20T08:23:56;10.50;;;7.60;;
67352;SDS011;54238;52.278;21.056;2023-12-20T08:26:27;13.90;;;9.40;;
67352;SDS011;54238;52.278;21.056;2023-12-20T08:28:59;13.60;;;8.50;;
67352;SDS011;54238;52.278;21.056;2023-12-20T08:31:26;12.60;;;10.20;;
67352;SDS011;54238;52.278;21.056;2023-12-20T08:33:56;12.20;;;7.60;;
67352;SDS011;54238;52.278;21.056;2023-12-20T08:36:25;8.60;;;7.70;;
67352;SDS011;54238;52.278;21.056;2023-12-20T08:38:55;9.20;;;6.90;;
67352;SDS011;54238;52.278;21.056;2023-12-20T08:41:24;13.50;;;7.70;;
67352;SDS011;54238;52.278;21.056;2023-12-20T08:43:56;10.70;;;7.80;;
67352;SDS011;54238;52.278;21.056;2023-12-20T08:46:30;8.70;;;7.30;;
67352;SDS011;54238;52.278;21.056;2023-12-20T08:48:57;11.50;;;8.00;;
67352;SDS011;54238;52.278;21.056;2023-12-20T08:51:27;11.10;;;9.00;;
67352;SDS011;54238;52.278;21.056;2023-12-20T08:53:57;15.00;;;8.00;;
67352;SDS011;54238;52.278;21.056;2023-12-20T08:56:26;12.20;;;8.10;;
67352;SDS011;54238;52.278;21.056;2023-12-20T08:58:56;7.40;;;5.40;;
67352;SDS011;54238;52.278;21.056;2023-12-20T09:01:27;9.50;;;7.40;;
67352;SDS011;54238;52.278;21.056;2023-12-20T09:03:56;11.00;;;7.40;;
67352;SDS011;54238;52.278;21.056;2023-12-20T09:06:31;10.20;;;7.50;;
67352;SDS011;54238;52.278;21.056;2023-12-20T09:08:58;11.20;;;8.60;;
67352;SDS011;54238;52.278;21.056;2023-12-20T09:11:32;12.10;;;9.00;;
67352;SDS011;54238;52.278;21.056;2023-12-20T09:14:01;11.40;;;7.20;;
67352;SDS011;54238;52.278;21.056;2023-12-20T09:16:33;10.80;;;7.80;;
67352;SDS011;54238;52.278;21.056;2023-12-20T09:21:39;10.50;;;8.00;;
67352;SDS011;54238;52.278;21.056;2023-12-20T09:24:09;7.40;;;5.00;;
67352;SDS011;54238;52.278;21.056;2023-12-20T09:26:38;7.10;;;5.80;;
67352;SDS011;54238;52.278;21.056;2023-12-20T09:29:08;8.60;;;6.40;;
67352;SDS011;54238;52.278;21.056;2023-12-20T09:31:37;8.40;;;7.00;;
67352;SDS011;54238;52.278;21.056;2023-12-20T09:34:08;7.70;;;6.20;;
67352;SDS011;54238;52.278;21.056;2023-12-20T09:36:35;11.00;;;7.00;;
67352;SDS011;54238;52.278;21.056;2023-12-20T09:39:03;7.30;;;6.00;;
67352;SDS011;54238;52.278;21.056;2023-12-20T09:41:31;7.70;;;6.60;;
67352;SDS011;54238;52.278;21.056;2023-12-20T09:44:08;9.50;;;6.60;;
67352;SDS011;54238;52.278;21.056;2023-12-20T09:46:43;8.30;;;5.50;;
67352;SDS011;54238;52.278;21.056;2023-12-20T09:49:15;11.90;;;6.70;;
67352;SDS011;54238;52.278;21.056;2023-12-20T09:51:50;7.80;;;5.50;;
67352;SDS011;54238;52.278;21.056;2023-12-20T09:54:23;11.10;;;6.00;;
67352;SDS011;54238;52.278;21.056;2023-12-20T09:56:50;7.20;;;6.10;;
67352;SDS011;54238;52.278;21.056;2023-12-20T09:59:17;8.60;;;6.60;;
67352;SDS011;54238;52.278;21.056;2023-12-20T10:01:48;13.40;;;7.10;;
67352;SDS011;54238;52.278;21.056;2023-12-20T10:04:17;10.40;;;7.70;;
67352;SDS011;54238;52.278;21.056;2023-12-20T10:06:49;8.70;;;6.80;;
67352;SDS011;54238;52.278;21.056;2023-12-20T10:09:26;13.90;;;7.70;;
67352;SDS011;54238;52.278;21.056;2023-12-20T10:11:57;8.00;;;6.60;;
67352;SDS011;54238;52.278;21.056;2023-12-20T10:14:25;8.90;;;6.70;;
67352;SDS011;54238;52.278;21.056;2023-12-20T10:17:04;9.40;;;6.20;;
67352;SDS011;54238;52.278;21.056;2023-12-20T10:19:32;6.60;;;5.30;;
67352;SDS011;54238;52.278;21.056;2023-12-20T10:21:59;7.90;;;6.20;;
67352;SDS011;54238;52.278;21.056;2023-12-20T10:24:29;7.90;;;6.50;;
67352;SDS011;54238;52.278;21.056;2023-12-20T10:27:06;6.30;;;5.50;;
67352;SDS011;54238;52.278;21.056;2023-12-20T10:29:40;7.60;;;5.50;;
67352;SDS011;54238;52.278;21.056;2023-12-20T10:32:27;9.10;;;6.20;;
67352;SDS011;54238;52.278;21.056;2023-12-20T10:34:55;8.50;;;6.80;;
67352;SDS011;54238;52.278;21.056;2023-12-20T10:37:28;10.90;;;6.10;;
67352;SDS011;54238;52.278;21.056;2023-12-20T10:39:58;7.20;;;4.80;;
67352;SDS011;54238;52.278;21.056;2023-12-20T10:42:33;7.50;;;6.20;;
67352;SDS011;54238;52.278;21.056;2023-12-20T10:45:04;8.00;;;6.10;;
67352;SDS011;54238;52.278;21.056;2023-12-20T10:47:36;10.40;;;6.80;;
67352;SDS011;54238;52.278;21.056;2023-12-20T10:50:08;6.20;;;5.50;;
67352;SDS011;54238;52.278;21.056;2023-12-20T10:52:36;8.90;;;6.60;;
67352;SDS011;54238;52.278;21.056;2023-12-20T10:55:07;7.10;;;4.60;;
67352;SDS011;54238;52.278;21.056;2023-12-20T10:57:38;7.80;;;6.00;;
67352;SDS011;54238;52.278;21.056;2023-12-20T11:00:08;8.80;;;7.30;;
67352;SDS011;54238;52.278;21.056;2023-12-20T11:02:45;7.40;;;5.70;;
67352;SDS011;54238;52.278;21.056;2023-12-20T11:08:33;9.90;;;6.30;;
67352;SDS011;54238;52.278;21.056;2023-12-20T11:14:06;8.60;;;6.30;;
67352;SDS011;54238;52.278;21.056;2023-12-20T11:16:43;10.90;;;6.60;;
67352;SDS011;54238;52.278;21.056;2023-12-20T11:19:13;8.90;;;6.70;;
67352;SDS011;54238;52.278;21.056;2023-12-20T11:21:46;10.80;;;6.30;;
67352;SDS011;54238;52.278;21.056;2023-12-20T11:24:15;8.70;;;6.40;;
67352;SDS011;54238;52.278;21.056;2023-12-20T11:26:48;9.70;;;7.10;;
67352;SDS011;54238;52.278;21.056;2023-12-20T11:29:34;9.10;;;6.20;;
67352;SDS011;54238;52.278;21.056;2023-12-20T11:32:03;8.80;;;6.20;;
67352;SDS011;54238;52.278;21.056;2023-12-20T11:34:51;10.60;;;5.10;;
67352;SDS011;54238;52.278;21.056;2023-12-20T11:37:20;8.10;;;5.60;;
67352;SDS011;54238;52.278;21.056;2023-12-20T11:40:11;9.60;;;5.70;;
67352;SDS011;54238;52.278;21.056;2023-12-20T11:42:44;9.00;;;6.20;;
67352;SDS011;54238;52.278;21.056;2023-12-20T11:45:17;8.10;;;6.40;;
67352;SDS011;54238;52.278;21.056;2023-12-20T11:47:50;5.90;;;5.20;;
67352;SDS011;54238;52.278;21.056;2023-12-20T11:50:23;8.50;;;5.40;;
67352;SDS011;54238;52.278;21.056;2023-12-20T11:52:52;8.00;;;5.00;;
67352;SDS011;54238;52.278;21.056;2023-12-20T11:55:24;9.00;;;5.50;;
67352;SDS011;54238;52.278;21.056;2023-12-20T11:57:58;8.00;;;5.70;;
67352;SDS011;54238;52.278;21.056;2023-12-20T12:00:26;6.30;;;5.00;;
67352;SDS011;54238;52.278;21.056;2023-12-20T12:03:00;7.50;;;5.60;;
67352;SDS011;54238;52.278;21.056;2023-12-20T12:05:33;8.10;;;5.70;;
67352;SDS011;54238;52.278;21.056;2023-12-20T12:08:07;10.60;;;6.80;;
67352;SDS011;54238;52.278;21.056;2023-12-20T12:10:34;10.80;;;6.50;;
67352;SDS011;54238;52.278;21.056;2023-12-20T12:13:04;11.30;;;6.60;;
67352;SDS011;54238;52.278;21.056;2023-12-20T12:15:31;7.80;;;5.60;;
67352;SDS011;54238;52.278;21.056;2023-12-20T12:18:01;11.30;;;7.20;;
67352;SDS011;54238;52.278;21.056;2023-12-20T12:20:34;7.20;;;5.70;;
67352;SDS011;54238;52.278;21.056;2023-12-20T12:23:06;8.60;;;6.10;;
67352;SDS011;54238;52.278;21.056;2023-12-20T12:25:37;8.20;;;6.30;;
67352;SDS011;54238;52.278;21.056;2023-12-20T12:28:08;9.30;;;6.40;;
67352;SDS011;54238;52.278;21.056;2023-12-20T12:30:38;8.60;;;6.70;;
67352;SDS011;54238;52.278;21.056;2023-12-20T12:33:05;9.90;;;7.50;;
67352;SDS011;54238;52.278;21.056;2023-12-20T12:35:35;9.50;;;7.00;;
67352;SDS011;54238;52.278;21.056;2023-12-20T12:38:07;10.20;;;6.90;;
67352;SDS011;54238;52.278;21.056;2023-12-20T12:40:43;9.30;;;6.40;;
67352;SDS011;54238;52.278;21.056;2023-12-20T12:43:12;7.90;;;6.90;;
67352;SDS011;54238;52.278;21.056;2023-12-20T12:45:42;10.00;;;6.30;;
67352;SDS011;54238;52.278;21.056;2023-12-20T12:48:11;12.10;;;6.70;;
67352;SDS011;54238;52.278;21.056;2023-12-20T12:50:40;11.10;;;5.40;;
67352;SDS011;54238;52.278;21.056;2023-12-20T12:53:09;9.70;;;6.90;;
67352;SDS011;54238;52.278;21.056;2023-12-20T12:55:36;9.30;;;6.00;;
67352;SDS011;54238;52.278;21.056;2023-12-20T12:58:07;11.00;;;7.10;;
67352;SDS011;54238;52.278;21.056;2023-12-20T13:00:35;14.90;;;8.50;;
67352;SDS011;54238;52.278;21.056;2023-12-20T13:03:04;12.50;;;8.50;;
67352;SDS011;54238;52.278;21.056;2023-12-20T13:05:34;9.90;;;7.60;;
67352;SDS011;54238;52.278;21.056;2023-12-20T13:08:07;8.70;;;7.80;;
67352;SDS011;54238;52.278;21.056;2023-12-20T13:10:38;10.30;;;7.20;;
67352;SDS011;54238;52.278;21.056;2023-12-20T13:13:12;11.70;;;8.00;;
67352;SDS011;54238;52.278;21.056;2023-12-20T13:15:39;12.10;;;8.30;;
67352;SDS011;54238;52.278;21.056;2023-12-20T13:18:07;10.00;;;8.10;;
67352;SDS011;54238;52.278;21.056;2023-12-20T13:20:34;16.00;;;9.70;;
67352;SDS011;54238;52.278;21.056;2023-12-20T13:23:05;13.40;;;8.90;;
67352;SDS011;54238;52.278;21.056;2023-12-20T13:25:34;12.80;;;9.10;;
67352;SDS011;54238;52.278;21.056;2023-12-20T13:28:06;11.70;;;9.40;;
67352;SDS011;54238;52.278;21.056;2023-12-20T13:30:39;12.30;;;9.90;;
67352;SDS011;54238;52.278;21.056;2023-12-20T13:33:12;11.50;;;8.70;;
67352;SDS011;54238;52.278;21.056;2023-12-20T13:35:39;12.90;;;9.10;;
67352;SDS011;54238;52.278;21.056;2023-12-20T13:38:06;11.60;;;9.20;;
67352;SDS011;54238;52.278;21.056;2023-12-20T13:40:37;12.30;;;8.70;;
67352;SDS011;54238;52.278;21.056;2023-12-20T13:43:07;13.40;;;9.10;;
67352;SDS011;54238;52.278;21.056;2023-12-20T13:45:37;11.40;;;9.00;;
67352;SDS011;54238;52.278;21.056;2023-12-20T13:48:04;16.70;;;9.30;;
67352;SDS011;54238;52.278;21.056;2023-12-20T13:50:31;10.50;;;8.90;;
67352;SDS011;54238;52.278;21.056;2023-12-20T13:52:58;13.00;;;8.70;;
67352;SDS011;54238;52.278;21.056;2023-12-20T13:55:27;11.40;;;8.10;;
67352;SDS011;54238;52.278;21.056;2023-12-20T13:57:59;17.00;;;9.20;;
67352;SDS011;54238;52.278;21.056;2023-12-20T14:00:29;13.10;;;8.40;;
67352;SDS011;54238;52.278;21.056;2023-12-20T14:02:55;12.40;;;8.20;;
67352;SDS011;54238;52.278;21.056;2023-12-20T14:05:23;14.30;;;8.90;;
67352;SDS011;54238;52.278;21.056;2023-12-20T14:07:54;15.20;;;9.30;;
67352;SDS011;54238;52.278;21.056;2023-12-20T14:10:21;10.80;;;7.90;;
67352;SDS011;54238;52.278;21.056;2023-12-20T14:12:48;12.20;;;8.70;;
67352;SDS011;54238;52.278;21.056;2023-12-20T14:15:20;11.30;;;8.30;;
67352;SDS011;54238;52.278;21.056;2023-12-20T14:17:47;14.30;;;7.30;;
67352;SDS011;54238;52.278;21.056;2023-12-20T14:20:20;14.20;;;7.70;;
67352;SDS011;54238;52.278;21.056;2023-12-20T14:22:50;9.80;;;6.80;;
67352;SDS011;54238;52.278;21.056;2023-12-20T14:25:19;12.60;;;5.80;;
67352;SDS011;54238;52.278;21.056;2023-12-20T14:27:50;8.50;;;7.70;;
67352;SDS011;54238;52.278;21.056;2023-12-20T14:30:22;9.50;;;6.00;;
67352;SDS011;54238;52.278;21.056;2023-12-20T14:32:51;10.20;;;6.20;;
67352;SDS011;54238;52.278;21.056;2023-12-20T14:35:21;10.80;;;6.00;;
67352;SDS011;54238;52.278;21.056;2023-12-20T14:37:53;12.40;;;6.40;;
67352;SDS011;54238;52.278;21.056;2023-12-20T14:40:23;10.20;;;6.40;;
67352;SDS011;54238;52.278;21.056;2023-12-20T14:42:52;8.60;;;5.60;;
67352;SDS011;54238;52.278;21.056;2023-12-20T14:45:23;8.90;;;5.30;;
67352;SDS011;54238;52.278;21.056;2023-12-20T14:47:52;9.40;;;5.40;;
67352;SDS011;54238;52.278;21.056;2023-12-20T14:50:26;13.00;;;6.40;;
67352;SDS011;54238;52.278;21.056;2023-12-20T14:52:56;8.90;;;4.20;;